Terminal Aerodrome Forecast
Issued by NWS

Current Version | Previous Version | Text Only | Print | Product List | Glossary On
Versions: 1 2 3 4 5 6 7 8 9 10 11 12 13 14 15 16 17 18 19 20 21 22
000
FTUS41 KLWX 212037 AAB
TAFMTN
TAF AMD
KMTN 212037Z 2121/2218 15006KT 1/2SM FG OVC002
     FM220100 00000KT 1/2SM FG OVC003
     FM221600 08006KT P6SM OVC008=

USA.gov is the U.S. government's official web portal to all federal, state and local government web resources and services.